sensor_id;sensor_type;location;lat;lon;timestamp;P1;P2;P0
62778;PMS7003;48821;48.796;2.396;2023-04-03T00:00:11;29.00;28.00;17.00
62778;PMS7003;48821;48.796;2.396;2023-04-03T00:01:23;28.00;26.00;16.00
62778;PMS7003;48821;48.796;2.396;2023-04-03T00:02:35;28.20;25.40;17.00
62778;PMS7003;48821;48.796;2.396;2023-04-03T00:03:47;25.00;25.00;17.33
62778;PMS7003;48821;48.796;2.396;2023-04-03T00:04:59;24.60;22.80;17.00
62778;PMS7003;48821;48.796;2.396;2023-04-03T00:06:11;24.60;24.40;16.20
62778;PMS7003;48821;48.796;2.396;2023-04-03T00:07:23;28.33;24.67;17.67
62778;PMS7003;48821;48.796;2.396;2023-04-03T00:08:35;33.00;27.00;17.67
62778;PMS7003;48821;48.796;2.396;2023-04-03T00:09:47;28.60;25.00;17.00
62778;PMS7003;48821;48.796;2.396;2023-04-03T00:10:59;29.33;26.33;18.33
62778;PMS7003;48821;48.796;2.396;2023-04-03T00:12:11;29.00;25.67;17.00
62778;PMS7003;48821;48.796;2.396;2023-04-03T00:13:23;26.67;25.67;17.33
62778;PMS7003;48821;48.796;2.396;2023-04-03T00:14:34;33.60;26.60;17.60
62778;PMS7003;48821;48.796;2.396;2023-04-03T00:15:46;31.67;28.00;18.33
62778;PMS7003;48821;48.796;2.396;2023-04-03T00:16:58;31.20;27.60;17.00
62778;PMS7003;48821;48.796;2.396;2023-04-03T00:18:10;26.40;26.40;17.40
62778;PMS7003;48821;48.796;2.396;2023-04-03T00:19:22;26.80;22.00;15.20
62778;PMS7003;48821;48.796;2.396;2023-04-03T00:20:34;30.40;25.20;15.60
62778;PMS7003;48821;48.796;2.396;2023-04-03T00:21:46;28.00;21.00;14.40
62778;PMS7003;48821;48.796;2.396;2023-04-03T00:22:59;26.40;25.60;16.80
62778;PMS7003;48821;48.796;2.396;2023-04-03T00:24:10;35.50;28.50;19.50
62778;PMS7003;48821;48.796;2.396;2023-04-03T00:25:23;27.60;25.00;17.20
62778;PMS7003;48821;48.796;2.396;2023-04-03T00:26:34;25.33;23.00;16.00
62778;PMS7003;48821;48.796;2.396;2023-04-03T00:27:46;33.80;28.00;18.00
62778;PMS7003;48821;48.796;2.396;2023-04-03T00:28:58;32.33;27.33;19.00
62778;PMS7003;48821;48.796;2.396;2023-04-03T00:30:11;34.80;29.20;18.60
62778;PMS7003;48821;48.796;2.396;2023-04-03T00:31:26;31.33;29.67;20.00
62778;PMS7003;48821;48.796;2.396;2023-04-03T00:32:38;35.00;26.67;19.33
62778;PMS7003;48821;48.796;2.396;2023-04-03T00:33:50;33.40;28.40;17.40
62778;PMS7003;48821;48.796;2.396;2023-04-03T00:35:02;34.20;31.00;18.40
62778;PMS7003;48821;48.796;2.396;2023-04-03T00:36:14;32.20;28.40;19.80
62778;PMS7003;48821;48.796;2.396;2023-04-03T00:37:26;32.60;29.80;18.20
62778;PMS7003;48821;48.796;2.396;2023-04-03T00:38:38;32.20;26.20;17.40
62778;PMS7003;48821;48.796;2.396;2023-04-03T00:39:49;31.80;26.00;16.60
62778;PMS7003;48821;48.796;2.396;2023-04-03T00:41:02;26.00;20.20;12.40
62778;PMS7003;48821;48.796;2.396;2023-04-03T00:42:13;33.20;26.80;18.00
62778;PMS7003;48821;48.796;2.396;2023-04-03T00:43:25;31.60;25.40;17.80
62778;PMS7003;48821;48.796;2.396;2023-04-03T00:45:50;27.80;24.80;17.40
62778;PMS7003;48821;48.796;2.396;2023-04-03T00:47:02;31.50;30.50;20.00
62778;PMS7003;48821;48.796;2.396;2023-04-03T00:48:18;32.50;29.00;19.00
62778;PMS7003;48821;48.796;2.396;2023-04-03T00:49:31;30.00;27.50;19.00
62778;PMS7003;48821;48.796;2.396;2023-04-03T00:50:43;35.60;30.40;20.80
62778;PMS7003;48821;48.796;2.396;2023-04-03T00:51:55;31.00;28.50;16.00
62778;PMS7003;48821;48.796;2.396;2023-04-03T00:53:08;36.50;32.50;20.00
62778;PMS7003;48821;48.796;2.396;2023-04-03T00:54:22;37.50;33.00;21.00
62778;PMS7003;48821;48.796;2.396;2023-04-03T00:55:34;31.33;29.67;18.00
62778;PMS7003;48821;48.796;2.396;2023-04-03T00:56:47;25.00;24.00;14.33
62778;PMS7003;48821;48.796;2.396;2023-04-03T00:58:01;36.00;30.00;20.00
62778;PMS7003;48821;48.796;2.396;2023-04-03T00:59:14;39.00;33.00;21.50
62778;PMS7003;48821;48.796;2.396;2023-04-03T01:00:28;34.00;31.00;21.00
62778;PMS7003;48821;48.796;2.396;2023-04-03T01:01:40;41.40;32.40;20.00
62778;PMS7003;48821;48.796;2.396;2023-04-03T01:02:52;39.50;33.00;21.50
62778;PMS7003;48821;48.796;2.396;2023-04-03T01:04:04;32.20;29.80;19.80
62778;PMS7003;48821;48.796;2.396;2023-04-03T01:05:16;32.50;29.50;18.50
62778;PMS7003;48821;48.796;2.396;2023-04-03T01:06:28;36.00;31.00;20.00
62778;PMS7003;48821;48.796;2.396;2023-04-03T01:07:43;34.00;30.50;18.00
62778;PMS7003;48821;48.796;2.396;2023-04-03T01:08:54;33.50;30.00;18.00
62778;PMS7003;48821;48.796;2.396;2023-04-03T01:10:07;43.00;33.00;18.50
62778;PMS7003;48821;48.796;2.396;2023-04-03T01:11:20;38.00;32.00;20.50
62778;PMS7003;48821;48.796;2.396;2023-04-03T01:12:32;38.00;31.00;19.50
62778;PMS7003;48821;48.796;2.396;2023-04-03T01:13:46;38.50;33.50;22.50
62778;PMS7003;48821;48.796;2.396;2023-04-03T01:14:59;37.60;30.80;20.20
62778;PMS7003;48821;48.796;2.396;2023-04-03T01:16:11;39.50;32.00;21.00
62778;PMS7003;48821;48.796;2.396;2023-04-03T01:18:47;39.00;31.50;23.00
62778;PMS7003;48821;48.796;2.396;2023-04-03T01:24:28;38.50;30.50;21.50
62778;PMS7003;48821;48.796;2.396;2023-04-03T01:25:47;36.00;33.00;21.00
62778;PMS7003;48821;48.796;2.396;2023-04-03T01:27:01;29.33;25.67;19.33
62778;PMS7003;48821;48.796;2.396;2023-04-03T01:29:38;38.50;32.50;21.00
62778;PMS7003;48821;48.796;2.396;2023-04-03T01:32:13;29.00;25.67;15.33
62778;PMS7003;48821;48.796;2.396;2023-04-03T01:33:24;38.50;31.00;21.00
62778;PMS7003;48821;48.796;2.396;2023-04-03T01:34:36;32.80;28.80;20.20
62778;PMS7003;48821;48.796;2.396;2023-04-03T01:35:48;37.80;31.00;19.00
62778;PMS7003;48821;48.796;2.396;2023-04-03T01:37:00;33.00;28.60;16.00
62778;PMS7003;48821;48.796;2.396;2023-04-03T01:38:12;31.40;29.00;18.00
62778;PMS7003;48821;48.796;2.396;2023-04-03T01:39:24;27.33;27.33;18.00
62778;PMS7003;48821;48.796;2.396;2023-04-03T01:40:36;33.00;27.67;17.33
62778;PMS7003;48821;48.796;2.396;2023-04-03T01:41:48;31.67;29.67;19.00
62778;PMS7003;48821;48.796;2.396;2023-04-03T01:43:00;31.20;29.20;19.80
62778;PMS7003;48821;48.796;2.396;2023-04-03T01:44:12;28.60;27.60;18.40
62778;PMS7003;48821;48.796;2.396;2023-04-03T01:45:24;32.20;30.80;19.80
62778;PMS7003;48821;48.796;2.396;2023-04-03T01:46:36;39.40;30.40;19.80
62778;PMS7003;48821;48.796;2.396;2023-04-03T01:47:48;31.33;30.00;18.67
62778;PMS7003;48821;48.796;2.396;2023-04-03T01:49:00;29.00;24.60;18.80
62778;PMS7003;48821;48.796;2.396;2023-04-03T01:50:12;32.00;29.60;16.80
62778;PMS7003;48821;48.796;2.396;2023-04-03T01:51:24;32.33;28.00;16.33
62778;PMS7003;48821;48.796;2.396;2023-04-03T01:52:36;32.00;30.20;17.80
62778;PMS7003;48821;48.796;2.396;2023-04-03T01:53:48;33.60;31.40;19.60
62778;PMS7003;48821;48.796;2.396;2023-04-03T01:55:00;28.00;28.00;19.33
62778;PMS7003;48821;48.796;2.396;2023-04-03T01:56:12;36.80;31.60;20.40
62778;PMS7003;48821;48.796;2.396;2023-04-03T01:57:24;38.60;33.60;22.80
62778;PMS7003;48821;48.796;2.396;2023-04-03T01:58:36;29.40;29.40;20.20
62778;PMS7003;48821;48.796;2.396;2023-04-03T01:59:48;33.40;29.40;20.40
62778;PMS7003;48821;48.796;2.396;2023-04-03T02:01:00;37.40;31.00;20.00
62778;PMS7003;48821;48.796;2.396;2023-04-03T02:02:11;36.50;31.00;20.00
62778;PMS7003;48821;48.796;2.396;2023-04-03T02:03:23;38.00;32.67;20.00
62778;PMS7003;48821;48.796;2.396;2023-04-03T02:04:35;35.00;28.33;19.00
62778;PMS7003;48821;48.796;2.396;2023-04-03T02:05:46;24.50;20.00;9.50
62778;PMS7003;48821;48.796;2.396;2023-04-03T02:06:58;38.40;31.60;19.20
62778;PMS7003;48821;48.796;2.396;2023-04-03T02:08:10;41.20;30.80;21.40
62778;PMS7003;48821;48.796;2.396;2023-04-03T02:09:22;41.40;32.80;23.40
62778;PMS7003;48821;48.796;2.396;2023-04-03T02:10:34;42.00;33.00;22.80
62778;PMS7003;48821;48.796;2.396;2023-04-03T02:11:46;40.20;33.60;22.80
62778;PMS7003;48821;48.796;2.396;2023-04-03T02:12:58;34.80;31.00;21.40
62778;PMS7003;48821;48.796;2.396;2023-04-03T02:14:10;37.80;31.20;19.60
62778;PMS7003;48821;48.796;2.396;2023-04-03T02:15:22;45.60;35.20;22.60
62778;PMS7003;48821;48.796;2.396;2023-04-03T02:16:34;39.80;32.00;21.00
62778;PMS7003;48821;48.796;2.396;2023-04-03T02:17:46;35.00;31.00;19.40
62778;PMS7003;48821;48.796;2.396;2023-04-03T02:18:58;40.20;32.40;21.00
62778;PMS7003;48821;48.796;2.396;2023-04-03T02:20:10;36.00;33.00;22.80
62778;PMS7003;48821;48.796;2.396;2023-04-03T02:21:21;37.50;32.00;21.50
62778;PMS7003;48821;48.796;2.396;2023-04-03T02:22:33;40.40;33.40;20.80
62778;PMS7003;48821;48.796;2.396;2023-04-03T02:23:45;36.00;31.40;23.00
62778;PMS7003;48821;48.796;2.396;2023-04-03T02:24:57;40.20;32.00;20.80
62778;PMS7003;48821;48.796;2.396;2023-04-03T02:26:10;43.60;34.60;23.00
62778;PMS7003;48821;48.796;2.396;2023-04-03T02:27:23;34.50;31.00;21.00
62778;PMS7003;48821;48.796;2.396;2023-04-03T02:28:35;35.60;31.20;20.80
62778;PMS7003;48821;48.796;2.396;2023-04-03T02:29:46;49.00;35.00;24.00
62778;PMS7003;48821;48.796;2.396;2023-04-03T02:30:58;38.80;34.60;23.00
62778;PMS7003;48821;48.796;2.396;2023-04-03T02:32:10;39.80;32.20;22.60
62778;PMS7003;48821;48.796;2.396;2023-04-03T02:33:22;32.40;30.40;20.60
62778;PMS7003;48821;48.796;2.396;2023-04-03T02:34:34;38.60;29.40;20.40
62778;PMS7003;48821;48.796;2.396;2023-04-03T02:35:46;37.80;30.60;17.00
62778;PMS7003;48821;48.796;2.396;2023-04-03T02:37:03;31.00;27.00;19.00
62778;PMS7003;48821;48.796;2.396;2023-04-03T02:38:15;32.67;29.00;18.00
62778;PMS7003;48821;48.796;2.396;2023-04-03T02:39:27;24.67;23.67;15.67
62778;PMS7003;48821;48.796;2.396;2023-04-03T02:40:39;33.40;29.20;19.00
62778;PMS7003;48821;48.796;2.396;2023-04-03T02:41:50;30.40;27.60;14.80
62778;PMS7003;48821;48.796;2.396;2023-04-03T02:43:02;28.20;28.00;17.80
62778;PMS7003;48821;48.796;2.396;2023-04-03T02:44:14;32.00;27.80;16.40
62778;PMS7003;48821;48.796;2.396;2023-04-03T02:45:26;33.00;30.33;16.33
62778;PMS7003;48821;48.796;2.396;2023-04-03T02:46:38;34.00;29.33;19.00
62778;PMS7003;48821;48.796;2.396;2023-04-03T02:47:50;30.00;27.00;18.60
62778;PMS7003;48821;48.796;2.396;2023-04-03T02:49:02;32.20;27.00;18.00
62778;PMS7003;48821;48.796;2.396;2023-04-03T02:50:14;28.33;27.33;17.67
62778;PMS7003;48821;48.796;2.396;2023-04-03T02:51:26;32.60;28.80;18.80
62778;PMS7003;48821;48.796;2.396;2023-04-03T02:52:38;28.33;25.00;15.33
62778;PMS7003;48821;48.796;2.396;2023-04-03T02:53:50;27.40;26.60;17.80
62778;PMS7003;48821;48.796;2.396;2023-04-03T02:55:02;22.20;21.60;14.00
62778;PMS7003;48821;48.796;2.396;2023-04-03T02:56:14;29.00;24.67;14.00
62778;PMS7003;48821;48.796;2.396;2023-04-03T02:57:26;25.00;22.33;17.33
62778;PMS7003;48821;48.796;2.396;2023-04-03T02:58:38;27.00;24.40;17.00
62778;PMS7003;48821;48.796;2.396;2023-04-03T02:59:50;29.20;25.80;17.80
62778;PMS7003;48821;48.796;2.396;2023-04-03T03:01:02;28.00;26.33;17.00
62778;PMS7003;48821;48.796;2.396;2023-04-03T03:02:14;27.00;20.00;15.33
62778;PMS7003;48821;48.796;2.396;2023-04-03T03:03:26;26.60;23.80;15.20
62778;PMS7003;48821;48.796;2.396;2023-04-03T03:04:38;29.67;22.67;14.67
62778;PMS7003;48821;48.796;2.396;2023-04-03T03:05:49;25.40;21.00;14.00
62778;PMS7003;48821;48.796;2.396;2023-04-03T03:07:01;25.60;25.20;17.00
62778;PMS7003;48821;48.796;2.396;2023-04-03T03:08:13;30.00;24.00;15.67
62778;PMS7003;48821;48.796;2.396;2023-04-03T03:09:25;32.67;26.67;16.00
62778;PMS7003;48821;48.796;2.396;2023-04-03T03:10:37;27.67;22.67;15.67
62778;PMS7003;48821;48.796;2.396;2023-04-03T03:11:49;30.60;24.20;16.20
62778;PMS7003;48821;48.796;2.396;2023-04-03T03:13:01;26.33;23.00;15.00
62778;PMS7003;48821;48.796;2.396;2023-04-03T03:14:13;24.40;22.40;15.60
62778;PMS7003;48821;48.796;2.396;2023-04-03T03:15:25;29.00;24.80;16.40
62778;PMS7003;48821;48.796;2.396;2023-04-03T03:16:37;27.00;22.00;15.00
62778;PMS7003;48821;48.796;2.396;2023-04-03T03:17:49;30.67;24.00;14.00
62778;PMS7003;48821;48.796;2.396;2023-04-03T03:19:01;24.33;21.67;13.00
62778;PMS7003;48821;48.796;2.396;2023-04-03T03:20:12;26.00;24.00;15.60
62778;PMS7003;48821;48.796;2.396;2023-04-03T03:21:26;25.50;23.00;15.00
62778;PMS7003;48821;48.796;2.396;2023-04-03T03:22:38;25.67;21.33;16.00
62778;PMS7003;48821;48.796;2.396;2023-04-03T03:23:50;25.80;24.00;15.20
62778;PMS7003;48821;48.796;2.396;2023-04-03T03:25:02;25.20;21.40;14.80
62778;PMS7003;48821;48.796;2.396;2023-04-03T03:26:14;29.00;23.00;15.67
62778;PMS7003;48821;48.796;2.396;2023-04-03T03:27:26;23.00;20.67;15.00
62778;PMS7003;48821;48.796;2.396;2023-04-03T03:28:38;25.33;21.00;13.00
62778;PMS7003;48821;48.796;2.396;2023-04-03T03:29:50;24.33;23.67;15.00
62778;PMS7003;48821;48.796;2.396;2023-04-03T03:31:02;27.67;22.00;14.33
62778;PMS7003;48821;48.796;2.396;2023-04-03T03:32:14;24.33;22.33;15.33
62778;PMS7003;48821;48.796;2.396;2023-04-03T03:33:26;24.00;20.67;13.33
62778;PMS7003;48821;48.796;2.396;2023-04-03T03:34:37;17.67;14.00;10.33
62778;PMS7003;48821;48.796;2.396;2023-04-03T03:35:49;30.33;21.33;15.00
62778;PMS7003;48821;48.796;2.396;2023-04-03T03:37:01;20.33;19.33;13.00
62778;PMS7003;48821;48.796;2.396;2023-04-03T03:38:12;19.33;17.67;12.33
62778;PMS7003;48821;48.796;2.396;2023-04-03T03:39:24;21.00;19.00;12.67
62778;PMS7003;48821;48.796;2.396;2023-04-03T03:40:36;23.67;22.33;15.00
62778;PMS7003;48821;48.796;2.396;2023-04-03T03:41:48;19.67;18.33;14.00
62778;PMS7003;48821;48.796;2.396;2023-04-03T03:43:00;29.00;22.00;14.67
62778;PMS7003;48821;48.796;2.396;2023-04-03T03:44:12;22.67;20.67;13.33
62778;PMS7003;48821;48.796;2.396;2023-04-03T03:45:24;26.40;22.40;14.20
62778;PMS7003;48821;48.796;2.396;2023-04-03T03:46:36;24.00;19.33;13.00
62778;PMS7003;48821;48.796;2.396;2023-04-03T03:47:48;26.33;20.00;14.00
62778;PMS7003;48821;48.796;2.396;2023-04-03T03:49:00;25.00;20.00;14.00
62778;PMS7003;48821;48.796;2.396;2023-04-03T03:50:12;21.00;20.00;14.00
62778;PMS7003;48821;48.796;2.396;2023-04-03T03:51:23;27.20;21.20;14.00
62778;PMS7003;48821;48.796;2.396;2023-04-03T03:52:35;22.60;21.60;15.40
62778;PMS7003;48821;48.796;2.396;2023-04-03T03:53:47;22.00;20.00;13.33
62778;PMS7003;48821;48.796;2.396;2023-04-03T03:54:59;22.60;20.00;12.80
62778;PMS7003;48821;48.796;2.396;2023-04-03T03:56:11;22.33;22.00;14.33
62778;PMS7003;48821;48.796;2.396;2023-04-03T03:57:23;24.00;22.33;14.33
62778;PMS7003;48821;48.796;2.396;2023-04-03T03:58:35;21.00;17.60;11.20
62778;PMS7003;48821;48.796;2.396;2023-04-03T03:59:46;25.00;20.67;13.67
62778;PMS7003;48821;48.796;2.396;2023-04-03T04:01:05;19.67;19.33;13.00
62778;PMS7003;48821;48.796;2.396;2023-04-03T04:02:19;13.83;13.50;9.67
62778;PMS7003;48821;48.796;2.396;2023-04-03T04:03:31;21.00;20.67;14.00
62778;PMS7003;48821;48.796;2.396;2023-04-03T04:04:42;24.50;22.50;14.00
62778;PMS7003;48821;48.796;2.396;2023-04-03T04:05:54;24.20;20.80;14.60
62778;PMS7003;48821;48.796;2.396;2023-04-03T04:07:06;22.40;18.80;13.40
62778;PMS7003;48821;48.796;2.396;2023-04-03T04:08:18;22.67;20.33;13.67
62778;PMS7003;48821;48.796;2.396;2023-04-03T04:09:29;22.67;19.00;13.00
62778;PMS7003;48821;48.796;2.396;2023-04-03T04:10:42;22.17;18.83;12.00
62778;PMS7003;48821;48.796;2.396;2023-04-03T04:11:54;27.33;21.00;13.00
62778;PMS7003;48821;48.796;2.396;2023-04-03T04:13:06;26.00;20.67;12.00
62778;PMS7003;48821;48.796;2.396;2023-04-03T04:14:17;24.00;18.00;13.00
62778;PMS7003;48821;48.796;2.396;2023-04-03T04:15:30;23.00;22.50;13.50
62778;PMS7003;48821;48.796;2.396;2023-04-03T04:16:42;22.00;20.00;14.00
62778;PMS7003;48821;48.796;2.396;2023-04-03T04:17:54;23.33;22.00;14.00
62778;PMS7003;48821;48.796;2.396;2023-04-03T04:19:06;22.80;20.40;12.00
62778;PMS7003;48821;48.796;2.396;2023-04-03T04:20:19;19.33;17.00;11.50
62778;PMS7003;48821;48.796;2.396;2023-04-03T04:21:31;21.50;20.00;13.67
62778;PMS7003;48821;48.796;2.396;2023-04-03T04:22:43;25.00;22.60;13.00
62778;PMS7003;48821;48.796;2.396;2023-04-03T04:23:55;20.60;20.00;14.60
62778;PMS7003;48821;48.796;2.396;2023-04-03T04:25:07;27.00;21.33;11.67
62778;PMS7003;48821;48.796;2.396;2023-04-03T04:26:19;23.33;22.00;15.00
62778;PMS7003;48821;48.796;2.396;2023-04-03T04:27:31;19.80;18.20;12.60
62778;PMS7003;48821;48.796;2.396;2023-04-03T04:28:43;20.00;17.67;12.00
62778;PMS7003;48821;48.796;2.396;2023-04-03T04:29:54;23.33;20.00;13.00
62778;PMS7003;48821;48.796;2.396;2023-04-03T04:31:06;23.00;19.33;13.00
62778;PMS7003;48821;48.796;2.396;2023-04-03T04:32:18;20.67;20.67;12.33
62778;PMS7003;48821;48.796;2.396;2023-04-03T04:33:30;20.67;17.67;14.00
62778;PMS7003;48821;48.796;2.396;2023-04-03T04:34:42;24.33;21.67;14.67
62778;PMS7003;48821;48.796;2.396;2023-04-03T04:35:54;26.00;23.00;14.33
62778;PMS7003;48821;48.796;2.396;2023-04-03T04:37:05;19.33;18.33;14.67
62778;PMS7003;48821;48.796;2.396;2023-04-03T04:38:17;22.60;19.80;13.00
62778;PMS7003;48821;48.796;2.396;2023-04-03T04:39:29;22.00;19.80;13.00
62778;PMS7003;48821;48.796;2.396;2023-04-03T04:40:41;19.67;17.00;12.33
62778;PMS7003;48821;48.796;2.396;2023-04-03T04:41:53;25.00;21.00;14.00
62778;PMS7003;48821;48.796;2.396;2023-04-03T04:43:06;25.33;19.67;12.67
62778;PMS7003;48821;48.796;2.396;2023-04-03T04:44:18;25.00;22.67;15.00
62778;PMS7003;48821;48.796;2.396;2023-04-03T04:45:29;27.00;21.00;15.33
62778;PMS7003;48821;48.796;2.396;2023-04-03T04:46:41;22.67;19.67;13.00
62778;PMS7003;48821;48.796;2.396;2023-04-03T04:47:55;24.00;20.20;13.20
62778;PMS7003;48821;48.796;2.396;2023-04-03T04:49:08;20.33;17.67;11.67
62778;PMS7003;48821;48.796;2.396;2023-04-03T04:50:19;23.67;20.00;12.67
62778;PMS7003;48821;48.796;2.396;2023-04-03T04:51:31;22.00;18.00;12.33
62778;PMS7003;48821;48.796;2.396;2023-04-03T04:52:43;21.33;19.67;13.00
62778;PMS7003;48821;48.796;2.396;2023-04-03T04:53:55;20.67;20.33;13.33
62778;PMS7003;48821;48.796;2.396;2023-04-03T04:55:07;26.33;22.33;15.00
62778;PMS7003;48821;48.796;2.396;2023-04-03T04:56:19;23.20;19.80;13.20
62778;PMS7003;48821;48.796;2.396;2023-04-03T04:57:31;24.33;23.00;14.00
62778;PMS7003;48821;48.796;2.396;2023-04-03T04:58:42;21.67;18.67;13.00
62778;PMS7003;48821;48.796;2.396;2023-04-03T04:59:55;26.83;22.17;15.67
62778;PMS7003;48821;48.796;2.396;2023-04-03T05:01:10;26.17;21.83;13.83
62778;PMS7003;48821;48.796;2.396;2023-04-03T05:02:21;23.67;22.00;15.00
62778;PMS7003;48821;48.796;2.396;2023-04-03T05:03:33;17.00;15.33;9.67
62778;PMS7003;48821;48.796;2.396;2023-04-03T05:04:44;29.33;20.33;15.33
62778;PMS7003;48821;48.796;2.396;2023-04-03T05:05:56;26.67;22.00;15.67
62778;PMS7003;48821;48.796;2.396;2023-04-03T05:07:08;19.00;17.00;11.33
62778;PMS7003;48821;48.796;2.396;2023-04-03T05:08:18;21.50;19.00;12.00
62778;PMS7003;48821;48.796;2.396;2023-04-03T05:09:29;8.67;8.33;1.67
62778;PMS7003;48821;48.796;2.396;2023-04-03T05:10:41;26.00;22.67;15.00
62778;PMS7003;48821;48.796;2.396;2023-04-03T05:11:53;24.67;20.00;14.33
62778;PMS7003;48821;48.796;2.396;2023-04-03T05:13:05;23.00;19.33;14.33
62778;PMS7003;48821;48.796;2.396;2023-04-03T05:14:17;20.67;20.00;14.33
62778;PMS7003;48821;48.796;2.396;2023-04-03T05:15:29;26.20;21.40;13.80
62778;PMS7003;48821;48.796;2.396;2023-04-03T05:16:41;25.33;23.00;14.67
62778;PMS7003;48821;48.796;2.396;2023-04-03T05:17:53;22.33;20.67;14.00
62778;PMS7003;48821;48.796;2.396;2023-04-03T05:19:04;26.33;20.67;13.00
62778;PMS7003;48821;48.796;2.396;2023-04-03T05:20:16;22.33;20.67;12.33
62778;PMS7003;48821;48.796;2.396;2023-04-03T05:21:28;26.20;23.80;13.80
62778;PMS7003;48821;48.796;2.396;2023-04-03T05:22:43;25.00;21.33;15.00
62778;PMS7003;48821;48.796;2.396;2023-04-03T05:23:54;24.67;19.33;13.00
62778;PMS7003;48821;48.796;2.396;2023-04-03T05:25:07;28.20;23.20;14.80
62778;PMS7003;48821;48.796;2.396;2023-04-03T05:26:18;24.50;23.00;14.00
62778;PMS7003;48821;48.796;2.396;2023-04-03T05:27:29;26.20;21.00;13.20
62778;PMS7003;48821;48.796;2.396;2023-04-03T05:28:41;28.67;24.67;13.00
62778;PMS7003;48821;48.796;2.396;2023-04-03T05:29:54;25.33;21.83;14.67
62778;PMS7003;48821;48.796;2.396;2023-04-03T05:31:06;20.00;19.67;13.00
62778;PMS7003;48821;48.796;2.396;2023-04-03T05:32:18;20.33;17.67;14.00
62778;PMS7003;48821;48.796;2.396;2023-04-03T05:33:29;21.33;20.00;13.33
62778;PMS7003;48821;48.796;2.396;2023-04-03T05:34:41;23.00;20.00;13.00
62778;PMS7003;48821;48.796;2.396;2023-04-03T05:35:53;23.33;22.00;16.33
62778;PMS7003;48821;48.796;2.396;2023-04-03T05:37:04;20.50;17.50;15.00
62778;PMS7003;48821;48.796;2.396;2023-04-03T05:38:16;22.67;19.33;12.33
62778;PMS7003;48821;48.796;2.396;2023-04-03T05:39:28;23.00;22.00;16.00
62778;PMS7003;48821;48.796;2.396;2023-04-03T05:40:40;22.00;20.60;13.40
62778;PMS7003;48821;48.796;2.396;2023-04-03T05:41:52;22.67;19.33;14.33
62778;PMS7003;48821;48.796;2.396;2023-04-03T05:43:03;20.33;18.67;12.00
62778;PMS7003;48821;48.796;2.396;2023-04-03T05:44:14;15.00;14.00;7.00
62778;PMS7003;48821;48.796;2.396;2023-04-03T05:45:26;23.00;20.80;13.20
62778;PMS7003;48821;48.796;2.396;2023-04-03T05:46:37;21.00;19.00;12.00
62778;PMS7003;48821;48.796;2.396;2023-04-03T05:47:49;22.40;20.80;14.00
62778;PMS7003;48821;48.796;2.396;2023-04-03T05:49:01;28.20;24.60;15.40
62778;PMS7003;48821;48.796;2.396;2023-04-03T05:50:13;23.33;21.67;15.00
62778;PMS7003;48821;48.796;2.396;2023-04-03T05:51:27;24.67;21.67;14.67
62778;PMS7003;48821;48.796;2.396;2023-04-03T05:52:44;23.00;18.00;11.33
62778;PMS7003;48821;48.796;2.396;2023-04-03T05:54:03;23.00;22.00;13.50
62778;PMS7003;48821;48.796;2.396;2023-04-03T05:55:20;22.00;21.50;13.50
62778;PMS7003;48821;48.796;2.396;2023-04-03T05:56:31;24.00;23.00;14.67
62778;PMS7003;48821;48.796;2.396;2023-04-03T05:57:43;23.67;21.00;14.33
62778;PMS7003;48821;48.796;2.396;2023-04-03T05:58:55;24.00;21.00;14.00
62778;PMS7003;48821;48.796;2.396;2023-04-03T06:00:08;23.00;15.00;13.00
62778;PMS7003;48821;48.796;2.396;2023-04-03T06:01:23;21.00;21.00;12.67
62778;PMS7003;48821;48.796;2.396;2023-04-03T06:02:35;25.00;23.00;18.33
62778;PMS7003;48821;48.796;2.396;2023-04-03T06:03:47;22.00;20.20;14.00
62778;PMS7003;48821;48.796;2.396;2023-04-03T06:04:59;27.67;23.33;15.00
62778;PMS7003;48821;48.796;2.396;2023-04-03T06:06:12;23.00;20.67;14.00
62778;PMS7003;48821;48.796;2.396;2023-04-03T06:07:25;21.00;16.67;13.67
62778;PMS7003;48821;48.796;2.396;2023-04-03T06:08:39;23.00;20.67;14.33
62778;PMS7003;48821;48.796;2.396;2023-04-03T06:09:50;19.50;19.50;15.00
62778;PMS7003;48821;48.796;2.396;2023-04-03T06:11:02;20.33;20.33;14.00
62778;PMS7003;48821;48.796;2.396;2023-04-03T06:12:14;22.33;20.33;14.00
62778;PMS7003;48821;48.796;2.396;2023-04-03T06:13:26;21.67;20.00;15.00
62778;PMS7003;48821;48.796;2.396;2023-04-03T06:14:38;21.00;21.00;14.00
62778;PMS7003;48821;48.796;2.396;2023-04-03T06:15:50;24.80;23.00;15.00
62778;PMS7003;48821;48.796;2.396;2023-04-03T06:17:02;24.40;21.60;14.80
62778;PMS7003;48821;48.796;2.396;2023-04-03T06:18:15;22.67;20.67;13.33
62778;PMS7003;48821;48.796;2.396;2023-04-03T06:19:27;19.67;18.33;12.67
62778;PMS7003;48821;48.796;2.396;2023-04-03T06:20:38;23.00;19.67;13.00
62778;PMS7003;48821;48.796;2.396;2023-04-03T06:21:51;24.20;19.80;13.00
62778;PMS7003;48821;48.796;2.396;2023-04-03T06:23:01;28.00;24.50;14.50
62778;PMS7003;48821;48.796;2.396;2023-04-03T06:24:15;22.80;21.20;14.20
62778;PMS7003;48821;48.796;2.396;2023-04-03T06:25:27;24.33;21.00;15.00
62778;PMS7003;48821;48.796;2.396;2023-04-03T06:26:39;23.80;21.40;15.20
62778;PMS7003;48821;48.796;2.396;2023-04-03T06:27:51;19.67;19.33;13.33
62778;PMS7003;48821;48.796;2.396;2023-04-03T06:29:03;23.60;22.00;15.60
62778;PMS7003;48821;48.796;2.396;2023-04-03T06:30:15;26.67;19.67;13.67
62778;PMS7003;48821;48.796;2.396;2023-04-03T06:31:27;26.00;20.00;14.40
62778;PMS7003;48821;48.796;2.396;2023-04-03T06:32:38;25.67;24.33;15.33
62778;PMS7003;48821;48.796;2.396;2023-04-03T06:33:50;20.33;19.00;14.00
62778;PMS7003;48821;48.796;2.396;2023-04-03T06:35:03;21.33;19.67;13.67
62778;PMS7003;48821;48.796;2.396;2023-04-03T06:36:18;22.40;21.00;13.80
62778;PMS7003;48821;48.796;2.396;2023-04-03T06:37:30;27.00;24.00;15.50
62778;PMS7003;48821;48.796;2.396;2023-04-03T06:38:42;30.00;23.00;14.00
62778;PMS7003;48821;48.796;2.396;2023-04-03T06:39:54;23.00;20.67;13.67
62778;PMS7003;48821;48.796;2.396;2023-04-03T06:41:05;23.67;23.67;15.00
62778;PMS7003;48821;48.796;2.396;2023-04-03T06:42:17;22.50;22.00;15.50
62778;PMS7003;48821;48.796;2.396;2023-04-03T06:43:29;24.67;21.67;14.67
62778;PMS7003;48821;48.796;2.396;2023-04-03T06:44:42;21.67;21.00;15.33
62778;PMS7003;48821;48.796;2.396;2023-04-03T06:45:54;24.00;21.67;16.00
62778;PMS7003;48821;48.796;2.396;2023-04-03T06:47:06;22.00;20.80;15.40
62778;PMS7003;48821;48.796;2.396;2023-04-03T06:48:19;21.67;17.17;12.50
62778;PMS7003;48821;48.796;2.396;2023-04-03T06:49:30;24.00;19.00;12.33
62778;PMS7003;48821;48.796;2.396;2023-04-03T06:50:42;23.33;19.33;13.33
62778;PMS7003;48821;48.796;2.396;2023-04-03T06:51:55;24.67;21.00;14.17
62778;PMS7003;48821;48.796;2.396;2023-04-03T06:53:07;18.33;17.33;12.33
62778;PMS7003;48821;48.796;2.396;2023-04-03T06:54:19;22.67;18.33;13.33